AFR706 LFPG-DIAP
Flight info
| Callsign | AFR706 |
|---|---|
| Flight time | 6h 3m |
| Altitude | 39000 |
| Route | ERIXU DCT ETAMO DCT ADEKA DCT MOKDI DCT MEN DCT BADAM DCT KANIG DCT KENAS DCT POS L129 MJV N861 SADAF UA29 CHE/N0483F400 UA29 BAY UG26 TIO UA614 USLEN DCT KONET KONET1S |
| Aircraft | A359/H-SDE2E3GHIJ3J4J5LM1ORWXY/LB1D1 |
Departure
| Time | 2026-05-06 15:30 |
|---|---|
| Airport | Charles de Gaulle International Airport (LFPG) |
Arrival
| Time | 2026-05-06 21:33 |
|---|---|
| Airport | Félix-Houphouët-Boigny International Airport (DIAP) |
| Time | Latitude | Longitude | Altitude | Speed | Heading |
|---|---|---|---|---|---|
| 2026-05-06 15:07 | 49.00110 | 2.57532 | 360 ft | 0 kts | 357° |
| 2026-05-06 15:15 | 49.00106 | 2.57533 | 360 ft | 3 kts | 357° |
| 2026-05-06 15:15 | 49.00084 | 2.57534 | 360 ft | 4 kts | 5° |
| 2026-05-06 15:15 | 49.00065 | 2.57527 | 360 ft | 4 kts | 44° |
| 2026-05-06 15:16 | 49.00053 | 2.57499 | 364 ft | 4 kts | 76° |
| 2026-05-06 15:16 | 49.00048 | 2.57460 | 366 ft | 3 kts | 85° |
| 2026-05-06 15:16 | 49.00048 | 2.57456 | 366 ft | 0 kts | 85° |
| 2026-05-06 15:20 | 49.00049 | 2.57476 | 365 ft | 7 kts | 85° |
| 2026-05-06 15:20 | 49.00054 | 2.57566 | 360 ft | 9 kts | 85° |
| 2026-05-06 15:21 | 49.00059 | 2.57670 | 366 ft | 8 kts | 92° |
| 2026-05-06 15:21 | 49.00035 | 2.57734 | 362 ft | 7 kts | 145° |
| 2026-05-06 15:21 | 48.99993 | 2.57770 | 367 ft | 7 kts | 130° |
| 2026-05-06 15:21 | 48.99987 | 2.57842 | 367 ft | 7 kts | 88° |
| 2026-05-06 15:22 | 48.99991 | 2.57929 | 366 ft | 9 kts | 85° |
| 2026-05-06 15:22 | 48.99997 | 2.58031 | 360 ft | 10 kts | 85° |
| 2026-05-06 15:22 | 49.00003 | 2.58147 | 369 ft | 12 kts | 85° |
| 2026-05-06 15:22 | 49.00009 | 2.58280 | 364 ft | 13 kts | 85° |
| 2026-05-06 15:23 | 49.00017 | 2.58423 | 367 ft | 14 kts | 85° |
| 2026-05-06 15:23 | 49.00026 | 2.58582 | 360 ft | 16 kts | 85° |
| 2026-05-06 15:23 | 49.00036 | 2.58757 | 360 ft | 17 kts | 85° |
| 2026-05-06 15:23 | 49.00046 | 2.58947 | 367 ft | 19 kts | 85° |
| 2026-05-06 15:24 | 49.00057 | 2.59147 | 362 ft | 19 kts | 85° |
| 2026-05-06 15:24 | 49.00067 | 2.59342 | 365 ft | 18 kts | 85° |
| 2026-05-06 15:24 | 49.00078 | 2.59541 | 360 ft | 20 kts | 86° |
| 2026-05-06 15:24 | 49.00089 | 2.59754 | 367 ft | 21 kts | 85° |
| 2026-05-06 15:25 | 49.00101 | 2.59979 | 366 ft | 22 kts | 85° |
| 2026-05-06 15:25 | 49.00113 | 2.60207 | 363 ft | 21 kts | 85° |
| 2026-05-06 15:25 | 49.00119 | 2.60337 | 364 ft | 4 kts | 91° |
| 2026-05-06 15:25 | 49.00100 | 2.60394 | 367 ft | 8 kts | 141° |
| 2026-05-06 15:26 | 49.00038 | 2.60405 | 363 ft | 10 kts | 180° |
| 2026-05-06 15:26 | 48.99968 | 2.60401 | 362 ft | 0 kts | 186° |
| 2026-05-06 15:27 | 48.99958 | 2.60398 | 362 ft | 7 kts | 189° |
| 2026-05-06 15:27 | 48.99888 | 2.60362 | 368 ft | 12 kts | 209° |
| 2026-05-06 15:27 | 48.99837 | 2.60253 | 360 ft | 14 kts | 260° |
| 2026-05-06 15:27 | 48.99835 | 2.60223 | 359 ft | 0 kts | 265° |
| 2026-05-06 15:29 | 48.99832 | 2.60166 | 359 ft | 26 kts | 265° |
| 2026-05-06 15:29 | 48.99799 | 2.59537 | 365 ft | 91 kts | 265° |
| 2026-05-06 15:29 | 48.99731 | 2.58285 | 367 ft | 145 kts | 265° |
| 2026-05-06 15:29 | 48.99633 | 2.56541 | 475 ft | 182 kts | 266° |
| 2026-05-06 15:30 | 48.99505 | 2.54710 | 1448 ft | 165 kts | 266° |
| 2026-05-06 15:30 | 48.99400 | 2.52941 | 2050 ft | 172 kts | 269° |
| 2026-05-06 15:30 | 48.99316 | 2.51003 | 2341 ft | 194 kts | 269° |
| 2026-05-06 15:30 | 48.99219 | 2.48877 | 2685 ft | 213 kts | 268° |
| 2026-05-06 15:31 | 48.99097 | 2.46499 | 3067 ft | 236 kts | 268° |
| 2026-05-06 15:31 | 48.98965 | 2.43943 | 3716 ft | 246 kts | 268° |
| 2026-05-06 15:31 | 48.98821 | 2.41312 | 4464 ft | 252 kts | 268° |
| 2026-05-06 15:32 | 48.98512 | 2.35872 | 6008 ft | 264 kts | 268° |
| 2026-05-06 15:32 | 48.98356 | 2.33055 | 6796 ft | 269 kts | 267° |
| 2026-05-06 15:32 | 48.98197 | 2.30195 | 7625 ft | 272 kts | 267° |
| 2026-05-06 15:32 | 48.98033 | 2.27309 | 8442 ft | 275 kts | 267° |
| 2026-05-06 15:33 | 48.97867 | 2.24384 | 9254 ft | 279 kts | 267° |
| 2026-05-06 15:33 | 48.97699 | 2.21417 | 10016 ft | 284 kts | 266° |
| 2026-05-06 15:33 | 48.97525 | 2.18338 | 10488 ft | 301 kts | 266° |
| 2026-05-06 15:33 | 48.97341 | 2.15083 | 10920 ft | 316 kts | 266° |
| 2026-05-06 15:34 | 48.97148 | 2.11706 | 11537 ft | 324 kts | 266° |
| 2026-05-06 15:34 | 48.96947 | 2.08273 | 12236 ft | 328 kts | 266° |
| 2026-05-06 15:34 | 48.96526 | 2.04831 | 13014 ft | 334 kts | 252° |
| 2026-05-06 15:34 | 48.95393 | 2.01724 | 13753 ft | 340 kts | 231° |
| 2026-05-06 15:35 | 48.93565 | 1.99424 | 14394 ft | 346 kts | 209° |
| 2026-05-06 15:35 | 48.91284 | 1.98277 | 15120 ft | 349 kts | 188° |
| 2026-05-06 15:35 | 48.88868 | 1.98454 | 15813 ft | 352 kts | 166° |
| 2026-05-06 15:35 | 48.86494 | 1.99410 | 16466 ft | 354 kts | 172° |
| 2026-05-06 15:36 | 48.84037 | 1.99623 | 17197 ft | 355 kts | 181° |
| 2026-05-06 15:36 | 48.81557 | 1.99607 | 17932 ft | 357 kts | 181° |
| 2026-05-06 15:36 | 48.79061 | 1.99580 | 18583 ft | 361 kts | 181° |
| 2026-05-06 15:36 | 48.76550 | 1.99552 | 19170 ft | 365 kts | 181° |
| 2026-05-06 15:37 | 48.74017 | 1.99522 | 19736 ft | 369 kts | 181° |
| 2026-05-06 15:37 | 48.71437 | 1.99493 | 20360 ft | 373 kts | 181° |
| 2026-05-06 15:37 | 48.68806 | 1.99462 | 20972 ft | 376 kts | 181° |
| 2026-05-06 15:37 | 48.66217 | 1.99579 | 21551 ft | 380 kts | 174° |
| 2026-05-06 15:38 | 48.63628 | 2.00447 | 22187 ft | 383 kts | 161° |
| 2026-05-06 15:38 | 48.61120 | 2.01883 | 22801 ft | 386 kts | 159° |
| 2026-05-06 15:38 | 48.58624 | 2.03403 | 23413 ft | 389 kts | 159° |
| 2026-05-06 15:38 | 48.56103 | 2.04926 | 23939 ft | 392 kts | 159° |
| 2026-05-06 15:39 | 48.53562 | 2.06451 | 24411 ft | 396 kts | 159° |
| 2026-05-06 15:39 | 48.50985 | 2.07989 | 24898 ft | 399 kts | 159° |
| 2026-05-06 15:39 | 48.48393 | 2.09531 | 25385 ft | 402 kts | 159° |
| 2026-05-06 15:39 | 48.45783 | 2.11080 | 25843 ft | 405 kts | 159° |
| 2026-05-06 15:40 | 48.43155 | 2.12637 | 26335 ft | 408 kts | 159° |
| 2026-05-06 15:40 | 48.40499 | 2.14208 | 26795 ft | 411 kts | 159° |
| 2026-05-06 15:40 | 48.37831 | 2.15784 | 27274 ft | 414 kts | 159° |
| 2026-05-06 15:40 | 48.35140 | 2.17372 | 27738 ft | 417 kts | 159° |
| 2026-05-06 15:41 | 48.32434 | 2.18967 | 28196 ft | 419 kts | 159° |
| 2026-05-06 15:41 | 48.29692 | 2.20498 | 28647 ft | 422 kts | 162° |
| 2026-05-06 15:41 | 48.26828 | 2.21521 | 29097 ft | 424 kts | 170° |
| 2026-05-06 15:41 | 48.23953 | 2.22235 | 29536 ft | 426 kts | 171° |
| 2026-05-06 15:42 | 48.21014 | 2.22931 | 29980 ft | 429 kts | 171° |
| 2026-05-06 15:42 | 48.18068 | 2.23632 | 30360 ft | 431 kts | 171° |
| 2026-05-06 15:42 | 48.15102 | 2.24343 | 30729 ft | 432 kts | 171° |
| 2026-05-06 15:42 | 48.12122 | 2.25060 | 31094 ft | 434 kts | 171° |
| 2026-05-06 15:43 | 48.09129 | 2.25759 | 31438 ft | 437 kts | 172° |
| 2026-05-06 15:43 | 48.06086 | 2.26183 | 31695 ft | 441 kts | 176° |
| 2026-05-06 15:43 | 48.03002 | 2.26444 | 31876 ft | 447 kts | 177° |
| 2026-05-06 15:43 | 47.99873 | 2.26634 | 32055 ft | 453 kts | 178° |
| 2026-05-06 15:44 | 47.96696 | 2.26799 | 32239 ft | 459 kts | 178° |
| 2026-05-06 15:44 | 47.93491 | 2.26965 | 32410 ft | 464 kts | 178° |
| 2026-05-06 15:44 | 47.90240 | 2.27144 | 32575 ft | 470 kts | 178° |
| 2026-05-06 15:44 | 47.86961 | 2.27337 | 32742 ft | 475 kts | 178° |
| 2026-05-06 15:45 | 47.83641 | 2.27541 | 32896 ft | 480 kts | 178° |
| 2026-05-06 15:45 | 47.80293 | 2.27752 | 33156 ft | 483 kts | 178° |
| 2026-05-06 15:45 | 47.76932 | 2.27966 | 33478 ft | 483 kts | 178° |
| 2026-05-06 15:45 | 47.73622 | 2.28177 | 33799 ft | 484 kts | 178° |
| 2026-05-06 15:46 | 47.70201 | 2.28395 | 34098 ft | 484 kts | 178° |
| 2026-05-06 15:46 | 47.66841 | 2.28608 | 34375 ft | 484 kts | 178° |
| 2026-05-06 15:46 | 47.63513 | 2.28819 | 34675 ft | 484 kts | 178° |
| 2026-05-06 15:46 | 47.60157 | 2.29030 | 34969 ft | 483 kts | 178° |
| 2026-05-06 15:47 | 47.56794 | 2.29241 | 35242 ft | 483 kts | 178° |
| 2026-05-06 15:47 | 47.53438 | 2.29451 | 35514 ft | 483 kts | 178° |
| 2026-05-06 15:47 | 47.50090 | 2.29662 | 35785 ft | 483 kts | 179° |
| 2026-05-06 15:47 | 47.46726 | 2.29874 | 36053 ft | 482 kts | 178° |
| 2026-05-06 15:48 | 47.43375 | 2.30084 | 36281 ft | 483 kts | 178° |
| 2026-05-06 15:48 | 47.40022 | 2.30293 | 36519 ft | 483 kts | 179° |
| 2026-05-06 15:48 | 47.36659 | 2.30503 | 36754 ft | 483 kts | 179° |
| 2026-05-06 15:48 | 47.33302 | 2.30711 | 36985 ft | 483 kts | 179° |
| 2026-05-06 15:49 | 47.29942 | 2.30919 | 37210 ft | 483 kts | 179° |
| 2026-05-06 15:49 | 47.26586 | 2.31126 | 37437 ft | 483 kts | 179° |
| 2026-05-06 15:49 | 47.23220 | 2.31335 | 37660 ft | 483 kts | 179° |
| 2026-05-06 15:49 | 47.19854 | 2.31544 | 37881 ft | 483 kts | 179° |
| 2026-05-06 15:50 | 47.16504 | 2.31752 | 38097 ft | 483 kts | 179° |
| 2026-05-06 15:50 | 47.13138 | 2.31961 | 38309 ft | 483 kts | 179° |
| 2026-05-06 15:50 | 47.09780 | 2.32168 | 38509 ft | 483 kts | 179° |
| 2026-05-06 15:50 | 47.06423 | 2.32375 | 38686 ft | 483 kts | 179° |
| 2026-05-06 15:51 | 47.03064 | 2.32582 | 38842 ft | 483 kts | 179° |
| 2026-05-06 15:51 | 46.99697 | 2.32789 | 38915 ft | 485 kts | 179° |
| 2026-05-06 15:51 | 46.92938 | 2.33204 | 38914 ft | 486 kts | 179° |
| 2026-05-06 15:52 | 46.86256 | 2.34129 | 38917 ft | 488 kts | 169° |
| 2026-05-06 15:52 | 46.79923 | 2.37684 | 38919 ft | 491 kts | 151° |
| 2026-05-06 15:53 | 46.74120 | 2.42988 | 38917 ft | 493 kts | 148° |
| 2026-05-06 15:53 | 46.68405 | 2.48535 | 38916 ft | 494 kts | 148° |
| 2026-05-06 15:54 | 46.62676 | 2.54056 | 38910 ft | 494 kts | 148° |
| 2026-05-06 15:54 | 46.56934 | 2.59511 | 38909 ft | 493 kts | 149° |
| 2026-05-06 15:55 | 46.51170 | 2.64948 | 38909 ft | 494 kts | 149° |
| 2026-05-06 15:55 | 46.45410 | 2.70366 | 38907 ft | 494 kts | 149° |
| 2026-05-06 15:56 | 46.39644 | 2.75777 | 38903 ft | 494 kts | 149° |
| 2026-05-06 15:56 | 46.33868 | 2.81185 | 38900 ft | 494 kts | 149° |
| 2026-05-06 15:57 | 46.28125 | 2.86550 | 38895 ft | 495 kts | 149° |
| 2026-05-06 15:57 | 46.22338 | 2.91943 | 38894 ft | 495 kts | 149° |
| 2026-05-06 15:58 | 46.16508 | 2.97360 | 38899 ft | 495 kts | 149° |
| 2026-05-06 15:58 | 46.10753 | 3.02695 | 38901 ft | 495 kts | 149° |
| 2026-05-06 15:59 | 46.04955 | 3.08057 | 38898 ft | 495 kts | 149° |
| 2026-05-06 15:59 | 45.99146 | 3.13373 | 38878 ft | 494 kts | 152° |
| 2026-05-06 16:00 | 45.92857 | 3.17116 | 38887 ft | 487 kts | 169° |
| 2026-05-06 16:00 | 45.86160 | 3.18034 | 38886 ft | 483 kts | 181° |
| 2026-05-06 16:01 | 45.79449 | 3.17951 | 38882 ft | 483 kts | 183° |
| 2026-05-06 16:01 | 45.72732 | 3.17763 | 38883 ft | 483 kts | 183° |
| 2026-05-06 16:02 | 45.66006 | 3.17628 | 38888 ft | 483 kts | 183° |
| 2026-05-06 16:02 | 45.59287 | 3.17532 | 38889 ft | 483 kts | 182° |
| 2026-05-06 16:03 | 45.52580 | 3.17446 | 38878 ft | 482 kts | 182° |
| 2026-05-06 16:03 | 45.45872 | 3.17360 | 38890 ft | 481 kts | 183° |
| 2026-05-06 16:04 | 45.39174 | 3.17272 | 38883 ft | 481 kts | 183° |
| 2026-05-06 16:04 | 45.32487 | 3.17184 | 38881 ft | 480 kts | 183° |
| 2026-05-06 16:05 | 45.25801 | 3.17091 | 38892 ft | 480 kts | 183° |
| 2026-05-06 16:05 | 45.19117 | 3.17003 | 38880 ft | 480 kts | 183° |
| 2026-05-06 16:06 | 45.12443 | 3.16917 | 38895 ft | 479 kts | 183° |
| 2026-05-06 16:06 | 45.05777 | 3.16831 | 38894 ft | 479 kts | 183° |
| 2026-05-06 16:07 | 44.99119 | 3.16744 | 38897 ft | 479 kts | 183° |
| 2026-05-06 16:07 | 44.92461 | 3.16661 | 38902 ft | 478 kts | 183° |
| 2026-05-06 16:08 | 44.85800 | 3.16575 | 38908 ft | 478 kts | 183° |
| 2026-05-06 16:08 | 44.79198 | 3.16484 | 38909 ft | 478 kts | 183° |
| 2026-05-06 16:09 | 44.72518 | 3.16395 | 38914 ft | 478 kts | 183° |
| 2026-05-06 16:09 | 44.65857 | 3.16308 | 38916 ft | 478 kts | 183° |
| 2026-05-06 16:10 | 44.59250 | 3.16226 | 38918 ft | 478 kts | 183° |
| 2026-05-06 16:10 | 44.53676 | 3.16275 | 38919 ft | 478 kts | 182° |
| 2026-05-06 16:11 | 44.45944 | 3.16448 | 38924 ft | 478 kts | 182° |
| 2026-05-06 16:11 | 44.40376 | 3.16559 | 38923 ft | 478 kts | 182° |
| 2026-05-06 16:12 | 44.33725 | 3.16674 | 38924 ft | 477 kts | 182° |
| 2026-05-06 16:12 | 44.27132 | 3.16776 | 38926 ft | 477 kts | 182° |
| 2026-05-06 16:13 | 44.20499 | 3.16876 | 38927 ft | 477 kts | 182° |
| 2026-05-06 16:13 | 44.13872 | 3.16979 | 38924 ft | 476 kts | 182° |
| 2026-05-06 16:14 | 44.07269 | 3.16855 | 38926 ft | 474 kts | 187° |
| 2026-05-06 16:14 | 44.00696 | 3.16149 | 38925 ft | 473 kts | 188° |
| 2026-05-06 16:15 | 43.94144 | 3.15350 | 38924 ft | 473 kts | 188° |
| 2026-05-06 16:15 | 43.87589 | 3.14550 | 38922 ft | 473 kts | 188° |
| 2026-05-06 16:16 | 43.81030 | 3.13765 | 38919 ft | 473 kts | 188° |
| 2026-05-06 16:16 | 43.74480 | 3.12991 | 38914 ft | 472 kts | 188° |
| 2026-05-06 16:17 | 43.67933 | 3.12212 | 38918 ft | 472 kts | 188° |
| 2026-05-06 16:17 | 43.61393 | 3.11441 | 38912 ft | 472 kts | 188° |
| 2026-05-06 16:18 | 43.54861 | 3.10674 | 38912 ft | 471 kts | 188° |
| 2026-05-06 16:18 | 43.48327 | 3.09905 | 38915 ft | 471 kts | 188° |
| 2026-05-06 16:19 | 43.41803 | 3.09140 | 38913 ft | 470 kts | 189° |
| 2026-05-06 16:19 | 43.35281 | 3.08377 | 38911 ft | 470 kts | 189° |
| 2026-05-06 16:20 | 43.28811 | 3.07620 | 38912 ft | 470 kts | 189° |
| 2026-05-06 16:20 | 43.22253 | 3.06856 | 38914 ft | 470 kts | 189° |
| 2026-05-06 16:21 | 43.15736 | 3.06098 | 38916 ft | 470 kts | 189° |
| 2026-05-06 16:21 | 43.09228 | 3.05343 | 38916 ft | 470 kts | 189° |
| 2026-05-06 16:22 | 43.02707 | 3.04588 | 38926 ft | 470 kts | 189° |
| 2026-05-06 16:22 | 42.96194 | 3.03836 | 38926 ft | 469 kts | 189° |
| 2026-05-06 16:23 | 42.89696 | 3.03087 | 38930 ft | 469 kts | 189° |
| 2026-05-06 16:23 | 42.83198 | 3.02340 | 38936 ft | 468 kts | 189° |
| 2026-05-06 16:24 | 42.76703 | 3.01594 | 38934 ft | 468 kts | 189° |
| 2026-05-06 16:24 | 42.70220 | 3.00851 | 38937 ft | 467 kts | 189° |
| 2026-05-06 16:25 | 42.63741 | 3.00109 | 38939 ft | 467 kts | 189° |
| 2026-05-06 16:25 | 42.57272 | 2.99371 | 38939 ft | 467 kts | 189° |
| 2026-05-06 16:26 | 42.50839 | 2.98638 | 38936 ft | 467 kts | 189° |
| 2026-05-06 16:26 | 42.44272 | 2.98616 | 38935 ft | 470 kts | 182° |
| 2026-05-06 16:27 | 42.37773 | 2.99105 | 38930 ft | 471 kts | 181° |
| 2026-05-06 16:27 | 42.31250 | 2.99668 | 38928 ft | 470 kts | 181° |
| 2026-05-06 16:28 | 42.24715 | 3.00221 | 38926 ft | 469 kts | 182° |
| 2026-05-06 16:28 | 42.18198 | 3.00757 | 38919 ft | 469 kts | 182° |
| 2026-05-06 16:29 | 42.11688 | 3.01284 | 38922 ft | 468 kts | 182° |
| 2026-05-06 16:29 | 42.05182 | 3.01810 | 38915 ft | 468 kts | 182° |
| 2026-05-06 16:30 | 41.99733 | 3.02250 | 38914 ft | 468 kts | 182° |
| 2026-05-06 16:30 | 41.92190 | 3.02859 | 38910 ft | 467 kts | 182° |
| 2026-05-06 16:31 | 41.85699 | 3.03384 | 38910 ft | 467 kts | 182° |
| 2026-05-06 16:31 | 41.79227 | 3.03904 | 38913 ft | 467 kts | 182° |
| 2026-05-06 16:32 | 41.72735 | 3.04424 | 38917 ft | 467 kts | 182° |
| 2026-05-06 16:32 | 41.66254 | 3.04942 | 38917 ft | 467 kts | 182° |
| 2026-05-06 16:33 | 41.59765 | 3.05460 | 38921 ft | 467 kts | 182° |
| 2026-05-06 16:34 | 41.50040 | 3.06235 | 38917 ft | 466 kts | 182° |
| 2026-05-06 16:34 | 41.43569 | 3.06750 | 38915 ft | 466 kts | 182° |
| 2026-05-06 16:35 | 41.37096 | 3.07263 | 38921 ft | 466 kts | 182° |
| 2026-05-06 16:35 | 41.30675 | 3.07771 | 38922 ft | 465 kts | 183° |
| 2026-05-06 16:36 | 41.24209 | 3.08282 | 38922 ft | 465 kts | 183° |
| 2026-05-06 16:36 | 41.17757 | 3.08791 | 38921 ft | 465 kts | 183° |
| 2026-05-06 16:37 | 41.11311 | 3.09299 | 38926 ft | 464 kts | 183° |
| 2026-05-06 16:37 | 41.04861 | 3.09805 | 38926 ft | 464 kts | 183° |
| 2026-05-06 16:38 | 40.98422 | 3.10309 | 38928 ft | 463 kts | 183° |
| 2026-05-06 16:38 | 40.91990 | 3.10812 | 38930 ft | 463 kts | 183° |
| 2026-05-06 16:39 | 40.85569 | 3.11313 | 38932 ft | 462 kts | 183° |
| 2026-05-06 16:39 | 40.79152 | 3.11814 | 38924 ft | 461 kts | 183° |
| 2026-05-06 16:40 | 40.72755 | 3.12312 | 38932 ft | 460 kts | 183° |
| 2026-05-06 16:40 | 40.66357 | 3.12810 | 38931 ft | 460 kts | 183° |
| 2026-05-06 16:41 | 40.59978 | 3.13305 | 38940 ft | 459 kts | 183° |
| 2026-05-06 16:41 | 40.53652 | 3.13793 | 38931 ft | 458 kts | 183° |
| 2026-05-06 16:42 | 40.47314 | 3.13942 | 38933 ft | 454 kts | 188° |
| 2026-05-06 16:42 | 40.41007 | 3.13693 | 38933 ft | 453 kts | 188° |
| 2026-05-06 16:43 | 40.34714 | 3.13389 | 38937 ft | 452 kts | 188° |
| 2026-05-06 16:43 | 40.28427 | 3.13088 | 38928 ft | 452 kts | 188° |
| 2026-05-06 16:44 | 40.22147 | 3.12797 | 38936 ft | 452 kts | 188° |
| 2026-05-06 16:44 | 40.15864 | 3.12510 | 38931 ft | 451 kts | 188° |
| 2026-05-06 16:45 | 40.09592 | 3.12226 | 38933 ft | 451 kts | 188° |
| 2026-05-06 16:45 | 40.03323 | 3.11941 | 38929 ft | 451 kts | 188° |
| 2026-05-06 16:46 | 39.97112 | 3.11608 | 38932 ft | 448 kts | 192° |
| 2026-05-06 16:46 | 39.91117 | 3.09904 | 38935 ft | 435 kts | 206° |
| 2026-05-06 16:47 | 39.85730 | 3.06475 | 38934 ft | 430 kts | 213° |
| 2026-05-06 16:47 | 39.80523 | 3.02660 | 38942 ft | 430 kts | 214° |
| 2026-05-06 16:48 | 39.75324 | 2.98817 | 38938 ft | 430 kts | 214° |
| 2026-05-06 16:48 | 39.70114 | 2.95010 | 38934 ft | 430 kts | 213° |
| 2026-05-06 16:49 | 39.64893 | 2.91230 | 38934 ft | 430 kts | 213° |
| 2026-05-06 16:49 | 39.59668 | 2.87458 | 38936 ft | 430 kts | 213° |
| 2026-05-06 16:50 | 39.54440 | 2.83690 | 38938 ft | 430 kts | 213° |
| 2026-05-06 16:50 | 39.49240 | 2.79943 | 38934 ft | 430 kts | 213° |
| 2026-05-06 16:51 | 39.43895 | 2.76422 | 38936 ft | 435 kts | 206° |
| 2026-05-06 16:51 | 39.38025 | 2.74291 | 38933 ft | 441 kts | 198° |
| 2026-05-06 16:52 | 39.31992 | 2.72656 | 38933 ft | 443 kts | 197° |
| 2026-05-06 16:52 | 39.25946 | 2.71093 | 38929 ft | 443 kts | 197° |
| 2026-05-06 16:53 | 39.19907 | 2.69509 | 38925 ft | 443 kts | 198° |
| 2026-05-06 16:53 | 39.13875 | 2.67898 | 38924 ft | 443 kts | 198° |
| 2026-05-06 16:54 | 39.07839 | 2.66284 | 38926 ft | 443 kts | 198° |
| 2026-05-06 16:54 | 39.01809 | 2.64676 | 38922 ft | 443 kts | 198° |
| 2026-05-06 16:55 | 38.95770 | 2.63070 | 38924 ft | 443 kts | 198° |
| 2026-05-06 16:55 | 38.89778 | 2.61480 | 38921 ft | 443 kts | 198° |
| 2026-05-06 16:56 | 38.83743 | 2.59882 | 38925 ft | 443 kts | 198° |
| 2026-05-06 16:56 | 38.77707 | 2.58285 | 38919 ft | 443 kts | 197° |
| 2026-05-06 16:57 | 38.71669 | 2.56691 | 38922 ft | 443 kts | 197° |
| 2026-05-06 16:57 | 38.65632 | 2.55100 | 38922 ft | 443 kts | 197° |
| 2026-05-06 16:58 | 38.59592 | 2.53511 | 38925 ft | 443 kts | 197° |
| 2026-05-06 16:58 | 38.53557 | 2.51925 | 38923 ft | 444 kts | 197° |
| 2026-05-06 16:59 | 38.47502 | 2.50336 | 38921 ft | 444 kts | 197° |
| 2026-05-06 16:59 | 38.41440 | 2.48747 | 38920 ft | 445 kts | 197° |
| 2026-05-06 17:00 | 38.35367 | 2.47159 | 38928 ft | 446 kts | 197° |
| 2026-05-06 17:00 | 38.29286 | 2.45570 | 38921 ft | 446 kts | 197° |
| 2026-05-06 17:01 | 38.23194 | 2.43981 | 38922 ft | 448 kts | 197° |
| 2026-05-06 17:01 | 38.17083 | 2.42391 | 38920 ft | 449 kts | 197° |
| 2026-05-06 17:02 | 38.11992 | 2.41068 | 38924 ft | 450 kts | 197° |
| 2026-05-06 17:02 | 38.04867 | 2.39220 | 38921 ft | 450 kts | 197° |
| 2026-05-06 17:03 | 37.98721 | 2.37628 | 38924 ft | 451 kts | 197° |
| 2026-05-06 17:03 | 37.93569 | 2.36297 | 38925 ft | 451 kts | 197° |
| 2026-05-06 17:04 | 37.87417 | 2.34710 | 38924 ft | 451 kts | 197° |
| 2026-05-06 17:04 | 37.81303 | 2.33163 | 38922 ft | 453 kts | 194° |
| 2026-05-06 17:05 | 37.75006 | 2.32251 | 38920 ft | 457 kts | 191° |
| 2026-05-06 17:05 | 37.68673 | 2.31521 | 38922 ft | 457 kts | 191° |
| 2026-05-06 17:06 | 37.62331 | 2.30818 | 38918 ft | 458 kts | 191° |
| 2026-05-06 17:06 | 37.55983 | 2.30105 | 38918 ft | 458 kts | 191° |
| 2026-05-06 17:07 | 37.49634 | 2.29385 | 38916 ft | 458 kts | 191° |
| 2026-05-06 17:07 | 37.43320 | 2.28667 | 38919 ft | 459 kts | 191° |
| 2026-05-06 17:08 | 37.36968 | 2.27947 | 38916 ft | 459 kts | 191° |
| 2026-05-06 17:08 | 37.30602 | 2.27226 | 38916 ft | 459 kts | 191° |
| 2026-05-06 17:09 | 37.24240 | 2.26508 | 38914 ft | 459 kts | 191° |
| 2026-05-06 17:09 | 37.17866 | 2.25789 | 38916 ft | 460 kts | 191° |
| 2026-05-06 17:10 | 37.11487 | 2.25071 | 38914 ft | 461 kts | 191° |
| 2026-05-06 17:10 | 37.05097 | 2.24353 | 38913 ft | 461 kts | 191° |
| 2026-05-06 17:11 | 36.98702 | 2.23635 | 38911 ft | 462 kts | 191° |
| 2026-05-06 17:11 | 36.92304 | 2.22919 | 38918 ft | 462 kts | 191° |
| 2026-05-06 17:12 | 36.85901 | 2.22203 | 38916 ft | 462 kts | 191° |
| 2026-05-06 17:12 | 36.79543 | 2.21493 | 38908 ft | 462 kts | 191° |
| 2026-05-06 17:13 | 36.73137 | 2.20780 | 38916 ft | 462 kts | 191° |
| 2026-05-06 17:13 | 36.66730 | 2.20067 | 38915 ft | 462 kts | 191° |
| 2026-05-06 17:14 | 36.60403 | 2.18978 | 38986 ft | 454 kts | 200° |
| 2026-05-06 17:14 | 36.57424 | 2.17768 | 39194 ft | 447 kts | 207° |
| 2026-05-06 17:14 | 36.54550 | 2.16306 | 39410 ft | 445 kts | 208° |
| 2026-05-06 17:14 | 36.51715 | 2.14776 | 39563 ft | 444 kts | 209° |
| 2026-05-06 17:15 | 36.48893 | 2.13207 | 39713 ft | 444 kts | 210° |
| 2026-05-06 17:15 | 36.46077 | 2.11627 | 39876 ft | 445 kts | 210° |
| 2026-05-06 17:15 | 36.43252 | 2.10043 | 39905 ft | 446 kts | 210° |
| 2026-05-06 17:16 | 36.37596 | 2.06903 | 39904 ft | 445 kts | 209° |
| 2026-05-06 17:16 | 36.31959 | 2.03806 | 39904 ft | 445 kts | 209° |
| 2026-05-06 17:17 | 36.26294 | 2.00703 | 39898 ft | 445 kts | 210° |
| 2026-05-06 17:17 | 36.20661 | 1.97628 | 39917 ft | 433 kts | 211° |
| 2026-05-06 17:17 | 36.17943 | 1.96154 | 39889 ft | 421 kts | 212° |
| 2026-05-06 17:18 | 36.15279 | 1.94703 | 39892 ft | 416 kts | 212° |
| 2026-05-06 17:18 | 36.09998 | 1.91827 | 39892 ft | 414 kts | 212° |
| 2026-05-06 17:19 | 36.04723 | 1.88967 | 39887 ft | 414 kts | 212° |
| 2026-05-06 17:19 | 35.99451 | 1.86116 | 39897 ft | 414 kts | 212° |
| 2026-05-06 17:20 | 35.94180 | 1.83275 | 39890 ft | 413 kts | 212° |
| 2026-05-06 17:20 | 35.88919 | 1.80444 | 39889 ft | 413 kts | 212° |
| 2026-05-06 17:21 | 35.83686 | 1.77622 | 39893 ft | 414 kts | 212° |
| 2026-05-06 17:21 | 35.78414 | 1.74787 | 39890 ft | 413 kts | 212° |
| 2026-05-06 17:22 | 35.73153 | 1.71968 | 39887 ft | 411 kts | 212° |
| 2026-05-06 17:22 | 35.67912 | 1.69161 | 39887 ft | 410 kts | 212° |
| 2026-05-06 17:23 | 35.62676 | 1.66359 | 39900 ft | 410 kts | 212° |
| 2026-05-06 17:23 | 35.57443 | 1.63562 | 39915 ft | 410 kts | 212° |
| 2026-05-06 17:24 | 35.52214 | 1.60773 | 39932 ft | 409 kts | 212° |
| 2026-05-06 17:24 | 35.46995 | 1.57993 | 39947 ft | 409 kts | 212° |
| 2026-05-06 17:25 | 35.41782 | 1.55219 | 39964 ft | 408 kts | 212° |
| 2026-05-06 17:25 | 35.36567 | 1.52466 | 39962 ft | 409 kts | 210° |
| 2026-05-06 17:26 | 35.31065 | 1.50469 | 39962 ft | 419 kts | 203° |
| 2026-05-06 17:26 | 35.25370 | 1.48890 | 39964 ft | 420 kts | 202° |
| 2026-05-06 17:27 | 35.19618 | 1.47367 | 39945 ft | 420 kts | 202° |
| 2026-05-06 17:27 | 35.13904 | 1.45845 | 39934 ft | 419 kts | 202° |
| 2026-05-06 17:28 | 35.08208 | 1.44312 | 39919 ft | 419 kts | 202° |
| 2026-05-06 17:28 | 35.02519 | 1.42778 | 39911 ft | 418 kts | 202° |
| 2026-05-06 17:29 | 34.96837 | 1.41248 | 39888 ft | 418 kts | 202° |
| 2026-05-06 17:29 | 34.91171 | 1.39726 | 39892 ft | 417 kts | 202° |
| 2026-05-06 17:30 | 34.85552 | 1.38218 | 39889 ft | 416 kts | 202° |
| 2026-05-06 17:30 | 34.79910 | 1.36707 | 39885 ft | 415 kts | 202° |
| 2026-05-06 17:31 | 34.74273 | 1.35198 | 39888 ft | 414 kts | 202° |
| 2026-05-06 17:31 | 34.68652 | 1.33696 | 39883 ft | 413 kts | 202° |
| 2026-05-06 17:32 | 34.63042 | 1.32199 | 39883 ft | 413 kts | 202° |
| 2026-05-06 17:32 | 34.57437 | 1.30705 | 39883 ft | 412 kts | 202° |
| 2026-05-06 17:33 | 34.51844 | 1.29217 | 39880 ft | 411 kts | 202° |
| 2026-05-06 17:33 | 34.46257 | 1.27732 | 39881 ft | 411 kts | 202° |
| 2026-05-06 17:34 | 34.40714 | 1.26261 | 39883 ft | 410 kts | 202° |
| 2026-05-06 17:34 | 34.35146 | 1.24785 | 39881 ft | 410 kts | 202° |
| 2026-05-06 17:35 | 34.29578 | 1.23311 | 39883 ft | 409 kts | 202° |
| 2026-05-06 17:35 | 34.24017 | 1.21842 | 39893 ft | 409 kts | 202° |
| 2026-05-06 17:36 | 34.15682 | 1.19641 | 39879 ft | 409 kts | 202° |
| 2026-05-06 17:36 | 34.10121 | 1.18176 | 39884 ft | 409 kts | 202° |
| 2026-05-06 17:37 | 34.04558 | 1.16712 | 39889 ft | 409 kts | 202° |
| 2026-05-06 17:37 | 33.98988 | 1.15249 | 39899 ft | 409 kts | 202° |
| 2026-05-06 17:38 | 33.93420 | 1.13788 | 39911 ft | 410 kts | 202° |
| 2026-05-06 17:38 | 33.87883 | 1.12337 | 39926 ft | 410 kts | 202° |
| 2026-05-06 17:39 | 33.82302 | 1.10876 | 39937 ft | 411 kts | 202° |
| 2026-05-06 17:39 | 33.76714 | 1.09418 | 39935 ft | 411 kts | 202° |
| 2026-05-06 17:40 | 33.71125 | 1.07959 | 39938 ft | 411 kts | 202° |
| 2026-05-06 17:40 | 33.65423 | 1.06692 | 39940 ft | 416 kts | 199° |
| 2026-05-06 17:41 | 33.59711 | 1.05706 | 39925 ft | 418 kts | 198° |
| 2026-05-06 17:41 | 33.53963 | 1.04698 | 39911 ft | 417 kts | 199° |
| 2026-05-06 17:42 | 33.48221 | 1.03642 | 39896 ft | 417 kts | 199° |
| 2026-05-06 17:42 | 33.42486 | 1.02564 | 39876 ft | 417 kts | 199° |
| 2026-05-06 17:43 | 33.36740 | 1.01483 | 39853 ft | 418 kts | 199° |
| 2026-05-06 17:43 | 33.30991 | 1.00406 | 39842 ft | 418 kts | 199° |
| 2026-05-06 17:44 | 33.25248 | 0.99333 | 39842 ft | 418 kts | 199° |
| 2026-05-06 17:44 | 33.19493 | 0.98257 | 39831 ft | 418 kts | 199° |
| 2026-05-06 17:45 | 33.13736 | 0.97182 | 39820 ft | 419 kts | 199° |
| 2026-05-06 17:45 | 33.07980 | 0.96110 | 39814 ft | 419 kts | 199° |
| 2026-05-06 17:46 | 33.02219 | 0.95039 | 39810 ft | 419 kts | 199° |
| 2026-05-06 17:46 | 32.96446 | 0.93966 | 39804 ft | 420 kts | 199° |
| 2026-05-06 17:47 | 32.90665 | 0.92894 | 39797 ft | 421 kts | 199° |
| 2026-05-06 17:47 | 32.84901 | 0.91826 | 39790 ft | 422 kts | 199° |
| 2026-05-06 17:48 | 32.79097 | 0.90753 | 39785 ft | 423 kts | 199° |
| 2026-05-06 17:48 | 32.73277 | 0.89678 | 39778 ft | 424 kts | 199° |
| 2026-05-06 17:49 | 32.67446 | 0.88602 | 39768 ft | 424 kts | 199° |
| 2026-05-06 17:49 | 32.61610 | 0.87526 | 39768 ft | 425 kts | 199° |
| 2026-05-06 17:50 | 32.55749 | 0.86447 | 39764 ft | 426 kts | 199° |
| 2026-05-06 17:50 | 32.49889 | 0.85370 | 39757 ft | 427 kts | 199° |
| 2026-05-06 17:51 | 32.44011 | 0.84292 | 39756 ft | 427 kts | 199° |
| 2026-05-06 17:51 | 32.38130 | 0.83215 | 39752 ft | 428 kts | 199° |
| 2026-05-06 17:52 | 32.32246 | 0.82138 | 39744 ft | 428 kts | 199° |
| 2026-05-06 17:52 | 32.26361 | 0.81062 | 39741 ft | 428 kts | 199° |
| 2026-05-06 17:53 | 32.20473 | 0.79988 | 39741 ft | 428 kts | 199° |
| 2026-05-06 17:53 | 32.14620 | 0.78920 | 39737 ft | 428 kts | 199° |
| 2026-05-06 17:54 | 32.08726 | 0.77847 | 39734 ft | 429 kts | 199° |
| 2026-05-06 17:54 | 32.02827 | 0.76774 | 39728 ft | 429 kts | 199° |
| 2026-05-06 17:55 | 31.96926 | 0.75703 | 39729 ft | 429 kts | 199° |
| 2026-05-06 17:55 | 31.91022 | 0.74632 | 39728 ft | 429 kts | 199° |
| 2026-05-06 17:56 | 31.85119 | 0.73563 | 39730 ft | 430 kts | 198° |
| 2026-05-06 17:56 | 31.79205 | 0.72493 | 39722 ft | 430 kts | 199° |
| 2026-05-06 17:57 | 31.73296 | 0.71425 | 39720 ft | 430 kts | 199° |
| 2026-05-06 17:57 | 31.67381 | 0.70358 | 39719 ft | 430 kts | 199° |
| 2026-05-06 17:58 | 31.61462 | 0.69291 | 39719 ft | 430 kts | 199° |
| 2026-05-06 17:58 | 31.55587 | 0.68234 | 39722 ft | 430 kts | 199° |
| 2026-05-06 17:59 | 31.49671 | 0.67171 | 39719 ft | 431 kts | 199° |
| 2026-05-06 17:59 | 31.43738 | 0.66105 | 39725 ft | 431 kts | 199° |
| 2026-05-06 18:00 | 31.37805 | 0.65041 | 39720 ft | 432 kts | 199° |
| 2026-05-06 18:00 | 31.31869 | 0.63979 | 39724 ft | 432 kts | 199° |
| 2026-05-06 18:01 | 31.26933 | 0.63096 | 39727 ft | 432 kts | 199° |
| 2026-05-06 18:01 | 31.20986 | 0.62033 | 39727 ft | 433 kts | 199° |
| 2026-05-06 18:02 | 31.15036 | 0.60971 | 39727 ft | 433 kts | 199° |
| 2026-05-06 18:02 | 31.09067 | 0.59908 | 39729 ft | 434 kts | 199° |
| 2026-05-06 18:03 | 31.03103 | 0.58847 | 39733 ft | 434 kts | 199° |
| 2026-05-06 18:03 | 30.97132 | 0.57780 | 39730 ft | 434 kts | 199° |
| 2026-05-06 18:04 | 30.91172 | 0.56668 | 39732 ft | 434 kts | 199° |
| 2026-05-06 18:04 | 30.85206 | 0.55545 | 39733 ft | 434 kts | 199° |
| 2026-05-06 18:05 | 30.79234 | 0.54430 | 39735 ft | 435 kts | 199° |
| 2026-05-06 18:05 | 30.73255 | 0.53320 | 39738 ft | 435 kts | 199° |
| 2026-05-06 18:06 | 30.67312 | 0.52219 | 39740 ft | 436 kts | 199° |
| 2026-05-06 18:06 | 30.61321 | 0.51110 | 39738 ft | 436 kts | 199° |
| 2026-05-06 18:07 | 30.55330 | 0.50002 | 39743 ft | 437 kts | 199° |
| 2026-05-06 18:07 | 30.49323 | 0.48894 | 39743 ft | 437 kts | 199° |
| 2026-05-06 18:08 | 30.43313 | 0.47786 | 39744 ft | 438 kts | 199° |
| 2026-05-06 18:08 | 30.37298 | 0.46677 | 39748 ft | 438 kts | 199° |
| 2026-05-06 18:09 | 30.31274 | 0.45568 | 39747 ft | 439 kts | 199° |
| 2026-05-06 18:09 | 30.25238 | 0.44460 | 39749 ft | 439 kts | 199° |
| 2026-05-06 18:10 | 30.19208 | 0.43354 | 39754 ft | 439 kts | 199° |
| 2026-05-06 18:10 | 30.13173 | 0.42247 | 39762 ft | 439 kts | 199° |
| 2026-05-06 18:11 | 30.07136 | 0.41142 | 39749 ft | 439 kts | 199° |
| 2026-05-06 18:11 | 30.01132 | 0.40044 | 39763 ft | 440 kts | 199° |
| 2026-05-06 18:12 | 29.95088 | 0.38942 | 39769 ft | 440 kts | 199° |
| 2026-05-06 18:12 | 29.89040 | 0.37839 | 39772 ft | 440 kts | 199° |
| 2026-05-06 18:13 | 29.82991 | 0.36737 | 39772 ft | 440 kts | 200° |
| 2026-05-06 18:13 | 29.76940 | 0.35636 | 39770 ft | 440 kts | 200° |
| 2026-05-06 18:14 | 29.70887 | 0.34537 | 39772 ft | 440 kts | 200° |
| 2026-05-06 18:14 | 29.64841 | 0.33440 | 39772 ft | 440 kts | 200° |
| 2026-05-06 18:15 | 29.58790 | 0.32343 | 39781 ft | 440 kts | 200° |
| 2026-05-06 18:15 | 29.52737 | 0.31247 | 39799 ft | 440 kts | 200° |
| 2026-05-06 18:16 | 29.46690 | 0.30154 | 39817 ft | 440 kts | 200° |
| 2026-05-06 18:16 | 29.40645 | 0.29062 | 39833 ft | 440 kts | 200° |
| 2026-05-06 18:17 | 29.34595 | 0.27971 | 39852 ft | 440 kts | 200° |
| 2026-05-06 18:17 | 29.28554 | 0.26882 | 39854 ft | 440 kts | 200° |
| 2026-05-06 18:18 | 29.22507 | 0.25793 | 39853 ft | 440 kts | 200° |
| 2026-05-06 18:18 | 29.16493 | 0.24622 | 39848 ft | 438 kts | 201° |
| 2026-05-06 18:19 | 29.10539 | 0.23366 | 39844 ft | 438 kts | 201° |
| 2026-05-06 18:19 | 29.04549 | 0.22110 | 39830 ft | 438 kts | 201° |
| 2026-05-06 18:20 | 28.98516 | 0.20868 | 39819 ft | 438 kts | 201° |
| 2026-05-06 18:20 | 28.92553 | 0.19649 | 39818 ft | 438 kts | 201° |
| 2026-05-06 18:21 | 28.86561 | 0.18426 | 39814 ft | 438 kts | 201° |
| 2026-05-06 18:21 | 28.80562 | 0.17203 | 39816 ft | 438 kts | 201° |
| 2026-05-06 18:22 | 28.74568 | 0.15981 | 39823 ft | 438 kts | 201° |
| 2026-05-06 18:22 | 28.68579 | 0.14762 | 39824 ft | 437 kts | 201° |
| 2026-05-06 18:23 | 28.62587 | 0.13544 | 39827 ft | 437 kts | 201° |
| 2026-05-06 18:23 | 28.56594 | 0.12327 | 39834 ft | 437 kts | 201° |
| 2026-05-06 18:24 | 28.50606 | 0.11112 | 39832 ft | 437 kts | 201° |
| 2026-05-06 18:24 | 28.44612 | 0.09898 | 39834 ft | 437 kts | 201° |
| 2026-05-06 18:25 | 28.38623 | 0.08685 | 39837 ft | 437 kts | 201° |
| 2026-05-06 18:25 | 28.32646 | 0.07477 | 39842 ft | 437 kts | 201° |
| 2026-05-06 18:26 | 28.26698 | 0.06276 | 39842 ft | 437 kts | 201° |
| 2026-05-06 18:26 | 28.20702 | 0.05067 | 39844 ft | 437 kts | 201° |
| 2026-05-06 18:27 | 28.14716 | 0.03861 | 39845 ft | 437 kts | 201° |
| 2026-05-06 18:27 | 28.08732 | 0.02657 | 39850 ft | 437 kts | 201° |
| 2026-05-06 18:28 | 28.02748 | 0.01454 | 39856 ft | 437 kts | 201° |
| 2026-05-06 18:28 | 27.96768 | 0.00254 | 39867 ft | 436 kts | 201° |
| 2026-05-06 18:29 | 27.90784 | -0.00946 | 39874 ft | 436 kts | 201° |
| 2026-05-06 18:29 | 27.84811 | -0.02143 | 39876 ft | 436 kts | 201° |
| 2026-05-06 18:30 | 27.78840 | -0.03338 | 39875 ft | 436 kts | 201° |
| 2026-05-06 18:30 | 27.72869 | -0.04531 | 39873 ft | 435 kts | 201° |
| 2026-05-06 18:31 | 27.66905 | -0.05722 | 39869 ft | 435 kts | 201° |
| 2026-05-06 18:31 | 27.60943 | -0.06911 | 39867 ft | 435 kts | 202° |
| 2026-05-06 18:32 | 27.54977 | -0.08100 | 39866 ft | 435 kts | 202° |
| 2026-05-06 18:32 | 27.49017 | -0.09286 | 39858 ft | 435 kts | 202° |
| 2026-05-06 18:33 | 27.43045 | -0.10473 | 39858 ft | 435 kts | 202° |
| 2026-05-06 18:33 | 27.37124 | -0.11649 | 39859 ft | 435 kts | 202° |
| 2026-05-06 18:34 | 27.31159 | -0.12832 | 39862 ft | 435 kts | 202° |
| 2026-05-06 18:34 | 27.25209 | -0.14010 | 39861 ft | 434 kts | 202° |
| 2026-05-06 18:35 | 27.19216 | -0.15196 | 39860 ft | 434 kts | 202° |
| 2026-05-06 18:35 | 27.13316 | -0.16363 | 39859 ft | 433 kts | 202° |
| 2026-05-06 18:36 | 27.07377 | -0.17536 | 39862 ft | 433 kts | 202° |
| 2026-05-06 18:36 | 27.01448 | -0.18706 | 39862 ft | 432 kts | 202° |
| 2026-05-06 18:37 | 26.96522 | -0.19676 | 39860 ft | 432 kts | 202° |
| 2026-05-06 18:37 | 26.89606 | -0.21036 | 39858 ft | 431 kts | 202° |
| 2026-05-06 18:38 | 26.83692 | -0.22199 | 39859 ft | 431 kts | 202° |
| 2026-05-06 18:38 | 26.77792 | -0.23358 | 39856 ft | 430 kts | 202° |
| 2026-05-06 18:39 | 26.71894 | -0.24516 | 39851 ft | 430 kts | 202° |
| 2026-05-06 18:40 | 26.63058 | -0.26248 | 39851 ft | 430 kts | 202° |
| 2026-05-06 18:40 | 26.57176 | -0.27399 | 39849 ft | 429 kts | 202° |
| 2026-05-06 18:41 | 26.51330 | -0.28543 | 39848 ft | 429 kts | 202° |
| 2026-05-06 18:41 | 26.45452 | -0.29691 | 39844 ft | 429 kts | 202° |
| 2026-05-06 18:42 | 26.39576 | -0.30836 | 39835 ft | 428 kts | 202° |
| 2026-05-06 18:42 | 26.33711 | -0.31979 | 39844 ft | 428 kts | 202° |
| 2026-05-06 18:43 | 26.27831 | -0.33125 | 39840 ft | 428 kts | 202° |
| 2026-05-06 18:43 | 26.21959 | -0.34268 | 39831 ft | 428 kts | 202° |
| 2026-05-06 18:44 | 26.16087 | -0.35409 | 39835 ft | 429 kts | 202° |
| 2026-05-06 18:44 | 26.10228 | -0.36546 | 39834 ft | 429 kts | 202° |
| 2026-05-06 18:45 | 26.04335 | -0.37689 | 39832 ft | 429 kts | 202° |
| 2026-05-06 18:45 | 25.98454 | -0.38829 | 39833 ft | 429 kts | 202° |
| 2026-05-06 18:46 | 25.92576 | -0.39967 | 39829 ft | 429 kts | 202° |
| 2026-05-06 18:46 | 25.86693 | -0.41104 | 39832 ft | 429 kts | 202° |
| 2026-05-06 18:47 | 25.80804 | -0.42241 | 39827 ft | 429 kts | 202° |
| 2026-05-06 18:47 | 25.74918 | -0.43377 | 39825 ft | 430 kts | 202° |
| 2026-05-06 18:48 | 25.69024 | -0.44513 | 39828 ft | 430 kts | 202° |
| 2026-05-06 18:48 | 25.63166 | -0.45641 | 39827 ft | 430 kts | 201° |
| 2026-05-06 18:49 | 25.57265 | -0.46777 | 39821 ft | 431 kts | 201° |
| 2026-05-06 18:49 | 25.51358 | -0.47912 | 39821 ft | 431 kts | 201° |
| 2026-05-06 18:50 | 25.45446 | -0.49047 | 39821 ft | 431 kts | 201° |
| 2026-05-06 18:50 | 25.39528 | -0.50181 | 39821 ft | 432 kts | 201° |
| 2026-05-06 18:51 | 25.33606 | -0.51316 | 39822 ft | 432 kts | 201° |
| 2026-05-06 18:51 | 25.27677 | -0.52451 | 39821 ft | 432 kts | 201° |
| 2026-05-06 18:52 | 25.21748 | -0.53584 | 39822 ft | 432 kts | 201° |
| 2026-05-06 18:52 | 25.15821 | -0.54716 | 39819 ft | 433 kts | 201° |
| 2026-05-06 18:53 | 25.09883 | -0.55849 | 39820 ft | 433 kts | 201° |
| 2026-05-06 18:53 | 25.04952 | -0.56789 | 39817 ft | 433 kts | 201° |
| 2026-05-06 18:54 | 24.99020 | -0.57919 | 39818 ft | 433 kts | 201° |
| 2026-05-06 18:54 | 24.92129 | -0.59231 | 39819 ft | 433 kts | 201° |
| 2026-05-06 18:55 | 24.87146 | -0.60178 | 39818 ft | 433 kts | 201° |
| 2026-05-06 18:55 | 24.81210 | -0.61305 | 39830 ft | 433 kts | 201° |
| 2026-05-06 18:56 | 24.75311 | -0.62424 | 39823 ft | 433 kts | 201° |
| 2026-05-06 18:56 | 24.69377 | -0.63549 | 39820 ft | 433 kts | 201° |
| 2026-05-06 18:57 | 24.63442 | -0.64673 | 39812 ft | 433 kts | 201° |
| 2026-05-06 18:57 | 24.57508 | -0.65796 | 39816 ft | 433 kts | 201° |
| 2026-05-06 18:58 | 24.51572 | -0.66918 | 39815 ft | 433 kts | 201° |
| 2026-05-06 18:58 | 24.45629 | -0.68041 | 39814 ft | 433 kts | 201° |
| 2026-05-06 18:59 | 24.39680 | -0.69163 | 39816 ft | 434 kts | 201° |
| 2026-05-06 18:59 | 24.33727 | -0.70285 | 39813 ft | 434 kts | 201° |
| 2026-05-06 19:00 | 24.27775 | -0.71405 | 39814 ft | 434 kts | 201° |
| 2026-05-06 19:00 | 24.21823 | -0.72525 | 39812 ft | 434 kts | 200° |
| 2026-05-06 19:01 | 24.15866 | -0.73645 | 39813 ft | 435 kts | 200° |
| 2026-05-06 19:01 | 24.09898 | -0.74765 | 39812 ft | 435 kts | 200° |
| 2026-05-06 19:02 | 24.03931 | -0.75884 | 39810 ft | 435 kts | 200° |
| 2026-05-06 19:02 | 23.97959 | -0.77004 | 39809 ft | 435 kts | 200° |
| 2026-05-06 19:03 | 23.91986 | -0.78122 | 39802 ft | 436 kts | 200° |
| 2026-05-06 19:03 | 23.86051 | -0.79232 | 39800 ft | 436 kts | 200° |
| 2026-05-06 19:04 | 23.80075 | -0.80349 | 39800 ft | 436 kts | 200° |
| 2026-05-06 19:04 | 23.74093 | -0.81466 | 39799 ft | 436 kts | 200° |
| 2026-05-06 19:05 | 23.68103 | -0.82583 | 39797 ft | 437 kts | 200° |
| 2026-05-06 19:05 | 23.62105 | -0.83701 | 39786 ft | 437 kts | 200° |
| 2026-05-06 19:06 | 23.56107 | -0.84818 | 39788 ft | 437 kts | 200° |
| 2026-05-06 19:06 | 23.50102 | -0.85935 | 39794 ft | 438 kts | 200° |
| 2026-05-06 19:07 | 23.44096 | -0.87051 | 39787 ft | 438 kts | 200° |
| 2026-05-06 19:07 | 23.38082 | -0.88168 | 39779 ft | 439 kts | 200° |
| 2026-05-06 19:08 | 23.32096 | -0.89278 | 39781 ft | 439 kts | 199° |
| 2026-05-06 19:08 | 23.26063 | -0.90396 | 39779 ft | 440 kts | 199° |
| 2026-05-06 19:09 | 23.20029 | -0.91513 | 39773 ft | 440 kts | 199° |
| 2026-05-06 19:09 | 23.13991 | -0.92630 | 39768 ft | 441 kts | 199° |
| 2026-05-06 19:10 | 23.07941 | -0.93748 | 39766 ft | 441 kts | 199° |
| 2026-05-06 19:10 | 23.01887 | -0.94866 | 39764 ft | 441 kts | 199° |
| 2026-05-06 19:11 | 22.95832 | -0.95983 | 39761 ft | 442 kts | 199° |
| 2026-05-06 19:11 | 22.89770 | -0.97100 | 39763 ft | 442 kts | 199° |
| 2026-05-06 19:12 | 22.83707 | -0.98217 | 39759 ft | 442 kts | 199° |
| 2026-05-06 19:12 | 22.77679 | -0.99326 | 39761 ft | 443 kts | 199° |
| 2026-05-06 19:13 | 22.71603 | -1.00444 | 39759 ft | 443 kts | 199° |
| 2026-05-06 19:13 | 22.65522 | -1.01561 | 39758 ft | 444 kts | 199° |
| 2026-05-06 19:14 | 22.59437 | -1.02677 | 39755 ft | 444 kts | 199° |
| 2026-05-06 19:14 | 22.53340 | -1.03794 | 39754 ft | 444 kts | 198° |
| 2026-05-06 19:15 | 22.47242 | -1.04911 | 39754 ft | 445 kts | 198° |
| 2026-05-06 19:15 | 22.41130 | -1.06029 | 39753 ft | 446 kts | 198° |
| 2026-05-06 19:16 | 22.35004 | -1.07148 | 39757 ft | 447 kts | 198° |
| 2026-05-06 19:16 | 22.28875 | -1.08266 | 39757 ft | 447 kts | 198° |
| 2026-05-06 19:17 | 22.22728 | -1.09386 | 39756 ft | 448 kts | 198° |
| 2026-05-06 19:17 | 22.16570 | -1.10508 | 39753 ft | 449 kts | 198° |
| 2026-05-06 19:18 | 22.10442 | -1.11622 | 39755 ft | 450 kts | 198° |
| 2026-05-06 19:18 | 22.04260 | -1.12746 | 39750 ft | 451 kts | 198° |
| 2026-05-06 19:19 | 21.98073 | -1.13870 | 39755 ft | 451 kts | 198° |
| 2026-05-06 19:19 | 21.91885 | -1.14993 | 39752 ft | 452 kts | 198° |
| 2026-05-06 19:20 | 21.85675 | -1.16119 | 39753 ft | 452 kts | 198° |
| 2026-05-06 19:20 | 21.79474 | -1.17242 | 39756 ft | 453 kts | 198° |
| 2026-05-06 19:21 | 21.73247 | -1.18369 | 39745 ft | 453 kts | 198° |
| 2026-05-06 19:21 | 21.67028 | -1.19494 | 39752 ft | 454 kts | 198° |
| 2026-05-06 19:22 | 21.60790 | -1.20620 | 39750 ft | 454 kts | 198° |
| 2026-05-06 19:22 | 21.54562 | -1.21744 | 39748 ft | 455 kts | 198° |
| 2026-05-06 19:23 | 21.48310 | -1.22872 | 39748 ft | 455 kts | 198° |
| 2026-05-06 19:23 | 21.42063 | -1.23998 | 39745 ft | 455 kts | 198° |
| 2026-05-06 19:24 | 21.35808 | -1.25124 | 39747 ft | 456 kts | 198° |
| 2026-05-06 19:24 | 21.29551 | -1.26249 | 39743 ft | 456 kts | 198° |
| 2026-05-06 19:25 | 21.23292 | -1.27374 | 39745 ft | 456 kts | 198° |
| 2026-05-06 19:25 | 21.17017 | -1.28501 | 39744 ft | 457 kts | 198° |
| 2026-05-06 19:26 | 21.10750 | -1.29626 | 39749 ft | 457 kts | 198° |
| 2026-05-06 19:26 | 21.04509 | -1.30745 | 39750 ft | 458 kts | 198° |
| 2026-05-06 19:27 | 20.98181 | -1.31878 | 39740 ft | 458 kts | 198° |
| 2026-05-06 19:27 | 20.91936 | -1.32996 | 39740 ft | 458 kts | 198° |
| 2026-05-06 19:28 | 20.85638 | -1.34122 | 39735 ft | 459 kts | 198° |
| 2026-05-06 19:28 | 20.79337 | -1.35248 | 39734 ft | 459 kts | 198° |
| 2026-05-06 19:29 | 20.73038 | -1.36372 | 39742 ft | 460 kts | 198° |
| 2026-05-06 19:29 | 20.66724 | -1.37499 | 39736 ft | 460 kts | 198° |
| 2026-05-06 19:30 | 20.60412 | -1.38623 | 39742 ft | 460 kts | 198° |
| 2026-05-06 19:30 | 20.54086 | -1.39750 | 39741 ft | 461 kts | 198° |
| 2026-05-06 19:31 | 20.47758 | -1.40876 | 39739 ft | 461 kts | 198° |
| 2026-05-06 19:31 | 20.38266 | -1.42563 | 39742 ft | 461 kts | 198° |
| 2026-05-06 19:32 | 20.31972 | -1.43680 | 39744 ft | 462 kts | 198° |
| 2026-05-06 19:32 | 20.25635 | -1.44804 | 39741 ft | 462 kts | 198° |
| 2026-05-06 19:33 | 20.19295 | -1.45928 | 39737 ft | 462 kts | 198° |
| 2026-05-06 19:33 | 20.12948 | -1.47051 | 39734 ft | 462 kts | 198° |
| 2026-05-06 19:34 | 20.06597 | -1.48175 | 39738 ft | 463 kts | 198° |
| 2026-05-06 19:34 | 20.00237 | -1.49299 | 39734 ft | 463 kts | 198° |
| 2026-05-06 19:35 | 19.93878 | -1.50421 | 39736 ft | 464 kts | 198° |
| 2026-05-06 19:35 | 19.87510 | -1.51545 | 39734 ft | 464 kts | 198° |
| 2026-05-06 19:36 | 19.81185 | -1.52661 | 39732 ft | 464 kts | 197° |
| 2026-05-06 19:36 | 19.74771 | -1.53790 | 39735 ft | 464 kts | 197° |
| 2026-05-06 19:37 | 19.68395 | -1.54913 | 39731 ft | 465 kts | 197° |
| 2026-05-06 19:37 | 19.63107 | -1.55842 | 39728 ft | 465 kts | 197° |
| 2026-05-06 19:38 | 19.55672 | -1.57149 | 39729 ft | 465 kts | 197° |
| 2026-05-06 19:38 | 19.49289 | -1.58270 | 39731 ft | 465 kts | 197° |
| 2026-05-06 19:39 | 19.42904 | -1.59390 | 39734 ft | 465 kts | 197° |
| 2026-05-06 19:39 | 19.36508 | -1.60511 | 39725 ft | 466 kts | 197° |
| 2026-05-06 19:40 | 19.30122 | -1.61630 | 39737 ft | 466 kts | 197° |
| 2026-05-06 19:40 | 19.23714 | -1.62752 | 39732 ft | 466 kts | 197° |
| 2026-05-06 19:41 | 19.17318 | -1.63870 | 39732 ft | 466 kts | 197° |
| 2026-05-06 19:41 | 19.10926 | -1.64987 | 39728 ft | 466 kts | 197° |
| 2026-05-06 19:42 | 19.04515 | -1.66106 | 39730 ft | 466 kts | 197° |
| 2026-05-06 19:42 | 18.98111 | -1.67224 | 39729 ft | 467 kts | 197° |
| 2026-05-06 19:43 | 18.91748 | -1.68333 | 39729 ft | 467 kts | 197° |
| 2026-05-06 19:43 | 18.85339 | -1.69449 | 39727 ft | 467 kts | 197° |
| 2026-05-06 19:44 | 18.78934 | -1.70564 | 39729 ft | 467 kts | 197° |
| 2026-05-06 19:44 | 18.72520 | -1.71680 | 39725 ft | 467 kts | 197° |
| 2026-05-06 19:45 | 18.66098 | -1.72797 | 39728 ft | 468 kts | 197° |
| 2026-05-06 19:45 | 18.59672 | -1.73913 | 39725 ft | 468 kts | 197° |
| 2026-05-06 19:46 | 18.53245 | -1.75032 | 39726 ft | 468 kts | 197° |
| 2026-05-06 19:46 | 18.46820 | -1.76148 | 39727 ft | 468 kts | 196° |
| 2026-05-06 19:47 | 18.40388 | -1.77263 | 39730 ft | 468 kts | 196° |
| 2026-05-06 19:47 | 18.33997 | -1.78371 | 39726 ft | 469 kts | 196° |
| 2026-05-06 19:48 | 18.27560 | -1.79487 | 39723 ft | 469 kts | 196° |
| 2026-05-06 19:48 | 18.21109 | -1.80605 | 39728 ft | 469 kts | 196° |
| 2026-05-06 19:49 | 18.14662 | -1.81721 | 39725 ft | 470 kts | 196° |
| 2026-05-06 19:49 | 18.08217 | -1.82835 | 39727 ft | 470 kts | 196° |
| 2026-05-06 19:50 | 18.01760 | -1.83951 | 39727 ft | 470 kts | 196° |
| 2026-05-06 19:50 | 17.96399 | -1.84877 | 39727 ft | 470 kts | 196° |
| 2026-05-06 19:51 | 17.89940 | -1.85992 | 39727 ft | 470 kts | 196° |
| 2026-05-06 19:51 | 17.83439 | -1.87113 | 39727 ft | 471 kts | 196° |
| 2026-05-06 19:52 | 17.76974 | -1.88228 | 39728 ft | 471 kts | 196° |
| 2026-05-06 19:52 | 17.70550 | -1.89337 | 39727 ft | 471 kts | 196° |
| 2026-05-06 19:53 | 17.64042 | -1.90456 | 39725 ft | 471 kts | 195° |
| 2026-05-06 19:53 | 17.57575 | -1.91563 | 39723 ft | 471 kts | 195° |
| 2026-05-06 19:54 | 17.51146 | -1.92664 | 39724 ft | 471 kts | 195° |
| 2026-05-06 19:54 | 17.44662 | -1.93775 | 39723 ft | 472 kts | 195° |
| 2026-05-06 19:55 | 17.38183 | -1.94885 | 39724 ft | 472 kts | 195° |
| 2026-05-06 19:55 | 17.31703 | -1.95994 | 39721 ft | 472 kts | 195° |
| 2026-05-06 19:56 | 17.25212 | -1.97104 | 39722 ft | 472 kts | 195° |
| 2026-05-06 19:56 | 17.18726 | -1.98212 | 39724 ft | 473 kts | 195° |
| 2026-05-06 19:57 | 17.12235 | -1.99321 | 39721 ft | 473 kts | 195° |
| 2026-05-06 19:57 | 17.05744 | -2.00429 | 39721 ft | 473 kts | 195° |
| 2026-05-06 19:58 | 16.99243 | -2.01538 | 39721 ft | 473 kts | 195° |
| 2026-05-06 19:58 | 16.92747 | -2.02645 | 39723 ft | 473 kts | 195° |
| 2026-05-06 19:59 | 16.86298 | -2.03743 | 39721 ft | 473 kts | 195° |
| 2026-05-06 19:59 | 16.79801 | -2.04848 | 39723 ft | 473 kts | 195° |
| 2026-05-06 20:00 | 16.73300 | -2.05954 | 39724 ft | 474 kts | 195° |
| 2026-05-06 20:00 | 16.66787 | -2.07061 | 39723 ft | 474 kts | 195° |
| 2026-05-06 20:01 | 16.60280 | -2.08166 | 39725 ft | 474 kts | 195° |
| 2026-05-06 20:01 | 16.53768 | -2.09271 | 39720 ft | 474 kts | 195° |
| 2026-05-06 20:02 | 16.47260 | -2.10375 | 39725 ft | 474 kts | 194° |
| 2026-05-06 20:02 | 16.40745 | -2.11479 | 39723 ft | 474 kts | 194° |
| 2026-05-06 20:03 | 16.34227 | -2.12583 | 39726 ft | 474 kts | 194° |
| 2026-05-06 20:03 | 16.27709 | -2.13686 | 39724 ft | 475 kts | 194° |
| 2026-05-06 20:04 | 16.21228 | -2.14782 | 39728 ft | 475 kts | 194° |
| 2026-05-06 20:04 | 16.14701 | -2.15885 | 39727 ft | 475 kts | 194° |
| 2026-05-06 20:05 | 16.08171 | -2.16988 | 39724 ft | 476 kts | 194° |
| 2026-05-06 20:05 | 16.01633 | -2.18092 | 39726 ft | 476 kts | 194° |
| 2026-05-06 20:06 | 15.95092 | -2.19195 | 39725 ft | 476 kts | 194° |
| 2026-05-06 20:06 | 15.88548 | -2.20298 | 39730 ft | 477 kts | 194° |
| 2026-05-06 20:07 | 15.81996 | -2.21402 | 39730 ft | 477 kts | 194° |
| 2026-05-06 20:07 | 15.75445 | -2.22505 | 39730 ft | 477 kts | 194° |
| 2026-05-06 20:08 | 15.68891 | -2.23607 | 39729 ft | 477 kts | 194° |
| 2026-05-06 20:08 | 15.62328 | -2.24711 | 39731 ft | 478 kts | 194° |
| 2026-05-06 20:09 | 15.55811 | -2.25806 | 39730 ft | 478 kts | 194° |
| 2026-05-06 20:09 | 15.49244 | -2.26909 | 39734 ft | 478 kts | 194° |
| 2026-05-06 20:10 | 15.42672 | -2.28011 | 39731 ft | 478 kts | 194° |
| 2026-05-06 20:10 | 15.36056 | -2.29121 | 39732 ft | 479 kts | 194° |
| 2026-05-06 20:11 | 15.29519 | -2.30217 | 39729 ft | 479 kts | 194° |
| 2026-05-06 20:11 | 15.22940 | -2.31319 | 39739 ft | 479 kts | 194° |
| 2026-05-06 20:12 | 15.16359 | -2.32421 | 39742 ft | 479 kts | 194° |
| 2026-05-06 20:12 | 15.09776 | -2.33523 | 39742 ft | 479 kts | 194° |
| 2026-05-06 20:13 | 15.03185 | -2.34626 | 39734 ft | 479 kts | 194° |
| 2026-05-06 20:13 | 14.96600 | -2.35726 | 39732 ft | 480 kts | 193° |
| 2026-05-06 20:14 | 14.90014 | -2.36827 | 39733 ft | 480 kts | 193° |
| 2026-05-06 20:14 | 14.83423 | -2.37927 | 39728 ft | 480 kts | 193° |
| 2026-05-06 20:15 | 14.76876 | -2.39020 | 39733 ft | 480 kts | 193° |
| 2026-05-06 20:15 | 14.70282 | -2.40119 | 39727 ft | 480 kts | 193° |
| 2026-05-06 20:16 | 14.63680 | -2.41219 | 39736 ft | 480 kts | 193° |
| 2026-05-06 20:16 | 14.57086 | -2.42318 | 39741 ft | 480 kts | 193° |
| 2026-05-06 20:17 | 14.50479 | -2.43417 | 39736 ft | 481 kts | 193° |
| 2026-05-06 20:17 | 14.43882 | -2.44515 | 39745 ft | 481 kts | 193° |
| 2026-05-06 20:18 | 14.37270 | -2.45617 | 39750 ft | 481 kts | 193° |
| 2026-05-06 20:18 | 14.30667 | -2.46715 | 39750 ft | 481 kts | 193° |
| 2026-05-06 20:19 | 14.24056 | -2.47809 | 39755 ft | 481 kts | 193° |
| 2026-05-06 20:19 | 14.17434 | -2.48906 | 39747 ft | 481 kts | 193° |
| 2026-05-06 20:20 | 14.10825 | -2.50001 | 39759 ft | 482 kts | 193° |
| 2026-05-06 20:20 | 14.04202 | -2.51099 | 39761 ft | 482 kts | 193° |
| 2026-05-06 20:21 | 13.97628 | -2.52187 | 39774 ft | 482 kts | 193° |
| 2026-05-06 20:21 | 13.91006 | -2.53283 | 39774 ft | 482 kts | 192° |
| 2026-05-06 20:22 | 13.84389 | -2.54377 | 39776 ft | 482 kts | 192° |
| 2026-05-06 20:22 | 13.77767 | -2.55471 | 39783 ft | 482 kts | 192° |
| 2026-05-06 20:23 | 13.71152 | -2.56564 | 39788 ft | 482 kts | 192° |
| 2026-05-06 20:23 | 13.64534 | -2.57657 | 39798 ft | 482 kts | 192° |
| 2026-05-06 20:24 | 13.57914 | -2.58750 | 39800 ft | 482 kts | 192° |
| 2026-05-06 20:24 | 13.51291 | -2.59841 | 39804 ft | 482 kts | 192° |
| 2026-05-06 20:25 | 13.44671 | -2.60932 | 39812 ft | 482 kts | 192° |
| 2026-05-06 20:25 | 13.38045 | -2.62024 | 39816 ft | 482 kts | 192° |
| 2026-05-06 20:26 | 13.31468 | -2.63107 | 39822 ft | 482 kts | 192° |
| 2026-05-06 20:26 | 13.24842 | -2.64197 | 39824 ft | 482 kts | 192° |
| 2026-05-06 20:27 | 13.18220 | -2.65285 | 39826 ft | 482 kts | 192° |
| 2026-05-06 20:27 | 13.11596 | -2.66374 | 39831 ft | 482 kts | 192° |
| 2026-05-06 20:28 | 13.04965 | -2.67464 | 39832 ft | 482 kts | 191° |
| 2026-05-06 20:28 | 12.98332 | -2.68552 | 39832 ft | 483 kts | 191° |
| 2026-05-06 20:29 | 12.91708 | -2.69638 | 39830 ft | 483 kts | 191° |
| 2026-05-06 20:29 | 12.85068 | -2.70727 | 39831 ft | 483 kts | 191° |
| 2026-05-06 20:30 | 12.75124 | -2.72356 | 39833 ft | 483 kts | 191° |
| 2026-05-06 20:31 | 12.68488 | -2.73442 | 39829 ft | 483 kts | 191° |
| 2026-05-06 20:31 | 12.61845 | -2.74530 | 39828 ft | 483 kts | 191° |
| 2026-05-06 20:32 | 12.55956 | -2.75493 | 39831 ft | 484 kts | 191° |
| 2026-05-06 20:32 | 12.49311 | -2.76579 | 39829 ft | 484 kts | 191° |
| 2026-05-06 20:33 | 12.42655 | -2.77667 | 39829 ft | 484 kts | 191° |
| 2026-05-06 20:33 | 12.36006 | -2.78753 | 39828 ft | 484 kts | 191° |
| 2026-05-06 20:34 | 12.29355 | -2.79839 | 39830 ft | 484 kts | 191° |
| 2026-05-06 20:34 | 12.22703 | -2.80925 | 39828 ft | 484 kts | 191° |
| 2026-05-06 20:35 | 12.16054 | -2.82010 | 39830 ft | 484 kts | 191° |
| 2026-05-06 20:35 | 12.09403 | -2.83095 | 39831 ft | 484 kts | 191° |
| 2026-05-06 20:36 | 12.02744 | -2.84181 | 39828 ft | 484 kts | 191° |
| 2026-05-06 20:36 | 11.96129 | -2.85259 | 39829 ft | 484 kts | 190° |
| 2026-05-06 20:37 | 11.89430 | -2.86350 | 39830 ft | 484 kts | 190° |
| 2026-05-06 20:37 | 11.82817 | -2.87426 | 39831 ft | 484 kts | 190° |
| 2026-05-06 20:38 | 11.76162 | -2.88509 | 39831 ft | 484 kts | 190° |
| 2026-05-06 20:38 | 11.69511 | -2.89591 | 39838 ft | 484 kts | 190° |
| 2026-05-06 20:39 | 11.62865 | -2.90671 | 39836 ft | 484 kts | 190° |
| 2026-05-06 20:39 | 11.56210 | -2.91752 | 39836 ft | 484 kts | 190° |
| 2026-05-06 20:40 | 11.49562 | -2.92832 | 39839 ft | 484 kts | 189° |
| 2026-05-06 20:40 | 11.42905 | -2.93912 | 39836 ft | 484 kts | 189° |
| 2026-05-06 20:41 | 11.36262 | -2.94994 | 39836 ft | 484 kts | 189° |
| 2026-05-06 20:41 | 11.29614 | -2.96070 | 39835 ft | 483 kts | 189° |
| 2026-05-06 20:42 | 11.22984 | -2.97143 | 39836 ft | 483 kts | 189° |
| 2026-05-06 20:42 | 11.16329 | -2.98221 | 39833 ft | 484 kts | 189° |
| 2026-05-06 20:43 | 11.10804 | -2.99115 | 39836 ft | 484 kts | 189° |
| 2026-05-06 20:43 | 11.04153 | -3.00192 | 39835 ft | 484 kts | 189° |
| 2026-05-06 20:44 | 10.96409 | -3.01445 | 39834 ft | 485 kts | 189° |
| 2026-05-06 20:44 | 10.90824 | -3.02348 | 39830 ft | 485 kts | 189° |
| 2026-05-06 20:45 | 10.84208 | -3.03418 | 39829 ft | 485 kts | 189° |
| 2026-05-06 20:45 | 10.77539 | -3.04495 | 39829 ft | 485 kts | 189° |
| 2026-05-06 20:46 | 10.70867 | -3.05573 | 39836 ft | 486 kts | 189° |
| 2026-05-06 20:46 | 10.64186 | -3.06652 | 39835 ft | 486 kts | 189° |
| 2026-05-06 20:47 | 10.57506 | -3.07730 | 39834 ft | 487 kts | 189° |
| 2026-05-06 20:47 | 10.50807 | -3.08810 | 39839 ft | 488 kts | 189° |
| 2026-05-06 20:48 | 10.44103 | -3.09891 | 39838 ft | 488 kts | 189° |
| 2026-05-06 20:48 | 10.37391 | -3.10972 | 39846 ft | 488 kts | 189° |
| 2026-05-06 20:49 | 10.30680 | -3.12052 | 39849 ft | 488 kts | 189° |
| 2026-05-06 20:49 | 10.24022 | -3.13124 | 39847 ft | 487 kts | 189° |
| 2026-05-06 20:50 | 10.17327 | -3.14201 | 39852 ft | 487 kts | 189° |
| 2026-05-06 20:50 | 10.10632 | -3.15279 | 39854 ft | 487 kts | 189° |
| 2026-05-06 20:51 | 10.03944 | -3.16354 | 39854 ft | 487 kts | 189° |
| 2026-05-06 20:51 | 9.97251 | -3.17429 | 39860 ft | 487 kts | 189° |
| 2026-05-06 20:52 | 9.90558 | -3.18504 | 39863 ft | 487 kts | 189° |
| 2026-05-06 20:52 | 9.83863 | -3.19579 | 39862 ft | 487 kts | 189° |
| 2026-05-06 20:53 | 9.77164 | -3.20654 | 39868 ft | 487 kts | 189° |
| 2026-05-06 20:53 | 9.70464 | -3.21729 | 39869 ft | 487 kts | 189° |
| 2026-05-06 20:54 | 9.63762 | -3.22804 | 39875 ft | 488 kts | 189° |
| 2026-05-06 20:54 | 9.57107 | -3.23871 | 39872 ft | 487 kts | 189° |
| 2026-05-06 20:55 | 9.50408 | -3.24945 | 39872 ft | 487 kts | 189° |
| 2026-05-06 20:55 | 9.43720 | -3.26016 | 39881 ft | 487 kts | 189° |
| 2026-05-06 20:56 | 9.37034 | -3.27086 | 39875 ft | 486 kts | 189° |
| 2026-05-06 20:56 | 9.30350 | -3.28157 | 39877 ft | 486 kts | 189° |
| 2026-05-06 20:57 | 9.23673 | -3.29225 | 39874 ft | 486 kts | 189° |
| 2026-05-06 20:57 | 9.16982 | -3.30295 | 39873 ft | 486 kts | 189° |
| 2026-05-06 20:58 | 9.10304 | -3.31362 | 39879 ft | 486 kts | 189° |
| 2026-05-06 20:58 | 9.03623 | -3.32430 | 39877 ft | 486 kts | 189° |
| 2026-05-06 20:59 | 8.96990 | -3.33490 | 39879 ft | 486 kts | 189° |
| 2026-05-06 20:59 | 8.90308 | -3.34557 | 39881 ft | 486 kts | 189° |
| 2026-05-06 21:00 | 8.83627 | -3.35624 | 39880 ft | 486 kts | 189° |
| 2026-05-06 21:00 | 8.76941 | -3.36690 | 39883 ft | 486 kts | 189° |
| 2026-05-06 21:01 | 8.70253 | -3.37757 | 39881 ft | 487 kts | 189° |
| 2026-05-06 21:01 | 8.63556 | -3.38825 | 39887 ft | 488 kts | 189° |
| 2026-05-06 21:02 | 8.56845 | -3.39894 | 39888 ft | 488 kts | 189° |
| 2026-05-06 21:02 | 8.50127 | -3.40965 | 39885 ft | 489 kts | 189° |
| 2026-05-06 21:03 | 8.43399 | -3.42037 | 39889 ft | 490 kts | 189° |
| 2026-05-06 21:03 | 8.36658 | -3.43110 | 39887 ft | 491 kts | 189° |
| 2026-05-06 21:04 | 8.29911 | -3.44185 | 39895 ft | 491 kts | 189° |
| 2026-05-06 21:04 | 8.23172 | -3.45257 | 39898 ft | 490 kts | 189° |
| 2026-05-06 21:05 | 8.16471 | -3.46323 | 39890 ft | 490 kts | 189° |
| 2026-05-06 21:05 | 8.09734 | -3.47394 | 39898 ft | 490 kts | 189° |
| 2026-05-06 21:06 | 8.03000 | -3.48465 | 39900 ft | 490 kts | 189° |
| 2026-05-06 21:06 | 7.96264 | -3.49535 | 39893 ft | 490 kts | 189° |
| 2026-05-06 21:07 | 7.89537 | -3.50604 | 39901 ft | 490 kts | 189° |
| 2026-05-06 21:07 | 7.82815 | -3.51671 | 39896 ft | 489 kts | 189° |
| 2026-05-06 21:08 | 7.76089 | -3.52739 | 39904 ft | 489 kts | 189° |
| 2026-05-06 21:08 | 7.69372 | -3.53802 | 39902 ft | 488 kts | 188° |
| 2026-05-06 21:09 | 7.62666 | -3.54861 | 39906 ft | 487 kts | 188° |
| 2026-05-06 21:09 | 7.56012 | -3.55911 | 39905 ft | 487 kts | 188° |
| 2026-05-06 21:10 | 7.49321 | -3.56967 | 39909 ft | 487 kts | 188° |
| 2026-05-06 21:10 | 7.42629 | -3.58023 | 39912 ft | 486 kts | 188° |
| 2026-05-06 21:11 | 7.35941 | -3.59079 | 39911 ft | 486 kts | 188° |
| 2026-05-06 21:11 | 7.29258 | -3.60133 | 39916 ft | 486 kts | 188° |
| 2026-05-06 21:12 | 7.22577 | -3.61186 | 39911 ft | 486 kts | 188° |
| 2026-05-06 21:12 | 7.15893 | -3.62240 | 39922 ft | 486 kts | 188° |
| 2026-05-06 21:13 | 7.09217 | -3.63292 | 39922 ft | 486 kts | 188° |
| 2026-05-06 21:13 | 7.02544 | -3.64343 | 39921 ft | 486 kts | 188° |
| 2026-05-06 21:14 | 6.95908 | -3.65388 | 39922 ft | 486 kts | 188° |
| 2026-05-06 21:14 | 6.89220 | -3.66441 | 39886 ft | 485 kts | 188° |
| 2026-05-06 21:14 | 6.85849 | -3.66972 | 39416 ft | 482 kts | 188° |
| 2026-05-06 21:15 | 6.82580 | -3.67486 | 38763 ft | 483 kts | 188° |
| 2026-05-06 21:15 | 6.79254 | -3.68010 | 37986 ft | 486 kts | 188° |
| 2026-05-06 21:15 | 6.75904 | -3.68537 | 37179 ft | 489 kts | 188° |
| 2026-05-06 21:15 | 6.72528 | -3.69068 | 36368 ft | 492 kts | 188° |
| 2026-05-06 21:16 | 6.69140 | -3.69600 | 35580 ft | 495 kts | 188° |
| 2026-05-06 21:16 | 6.65724 | -3.70138 | 34788 ft | 498 kts | 188° |
| 2026-05-06 21:16 | 6.62290 | -3.70678 | 34014 ft | 501 kts | 188° |
| 2026-05-06 21:16 | 6.58833 | -3.71221 | 33122 ft | 504 kts | 188° |
| 2026-05-06 21:17 | 6.55362 | -3.71766 | 32240 ft | 507 kts | 188° |
| 2026-05-06 21:17 | 6.51865 | -3.72316 | 31376 ft | 509 kts | 188° |
| 2026-05-06 21:17 | 6.48353 | -3.72867 | 30500 ft | 512 kts | 188° |
| 2026-05-06 21:17 | 6.44821 | -3.73422 | 29537 ft | 514 kts | 188° |
| 2026-05-06 21:18 | 6.41345 | -3.73969 | 28194 ft | 498 kts | 188° |
| 2026-05-06 21:18 | 6.37944 | -3.74504 | 26538 ft | 493 kts | 188° |
| 2026-05-06 21:18 | 6.34590 | -3.75032 | 25076 ft | 483 kts | 188° |
| 2026-05-06 21:18 | 6.31296 | -3.75549 | 23712 ft | 473 kts | 188° |
| 2026-05-06 21:19 | 6.28080 | -3.76054 | 22162 ft | 463 kts | 188° |
| 2026-05-06 21:19 | 6.24939 | -3.76548 | 20676 ft | 452 kts | 188° |
| 2026-05-06 21:19 | 6.21865 | -3.77031 | 19266 ft | 441 kts | 188° |
| 2026-05-06 21:19 | 6.18876 | -3.77500 | 17871 ft | 431 kts | 188° |
| 2026-05-06 21:20 | 6.15939 | -3.77963 | 16313 ft | 422 kts | 187° |
| 2026-05-06 21:20 | 6.13064 | -3.78417 | 14831 ft | 414 kts | 187° |
| 2026-05-06 21:20 | 6.10246 | -3.78862 | 13378 ft | 406 kts | 186° |
| 2026-05-06 21:20 | 6.07482 | -3.79296 | 11870 ft | 398 kts | 186° |
| 2026-05-06 21:21 | 6.04805 | -3.79717 | 10921 ft | 379 kts | 186° |
| 2026-05-06 21:21 | 6.02315 | -3.80111 | 10584 ft | 351 kts | 185° |
| 2026-05-06 21:21 | 5.99944 | -3.80484 | 10453 ft | 335 kts | 185° |
| 2026-05-06 21:21 | 5.97718 | -3.80833 | 10330 ft | 321 kts | 185° |
| 2026-05-06 21:22 | 5.95526 | -3.81175 | 10209 ft | 308 kts | 185° |
| 2026-05-06 21:22 | 5.93475 | -3.81496 | 10086 ft | 299 kts | 185° |
| 2026-05-06 21:22 | 5.91415 | -3.81815 | 9943 ft | 300 kts | 185° |
| 2026-05-06 21:22 | 5.89366 | -3.82134 | 9765 ft | 295 kts | 184° |
| 2026-05-06 21:23 | 5.87298 | -3.82455 | 9509 ft | 298 kts | 185° |
| 2026-05-06 21:23 | 5.85252 | -3.82772 | 9198 ft | 297 kts | 185° |
| 2026-05-06 21:23 | 5.83219 | -3.83091 | 8867 ft | 295 kts | 185° |
| 2026-05-06 21:23 | 5.81195 | -3.83407 | 8532 ft | 293 kts | 185° |
| 2026-05-06 21:24 | 5.79190 | -3.83721 | 8208 ft | 291 kts | 186° |
| 2026-05-06 21:24 | 5.77224 | -3.84030 | 7877 ft | 289 kts | 186° |
| 2026-05-06 21:24 | 5.75243 | -3.84340 | 7569 ft | 287 kts | 186° |
| 2026-05-06 21:24 | 5.73275 | -3.84649 | 7240 ft | 285 kts | 186° |
| 2026-05-06 21:25 | 5.71318 | -3.84955 | 6927 ft | 283 kts | 186° |
| 2026-05-06 21:25 | 5.69379 | -3.85258 | 6608 ft | 281 kts | 187° |
| 2026-05-06 21:25 | 5.67450 | -3.85550 | 6286 ft | 279 kts | 185° |
| 2026-05-06 21:25 | 5.65520 | -3.85674 | 5856 ft | 278 kts | 179° |
| 2026-05-06 21:26 | 5.63588 | -3.85649 | 5470 ft | 276 kts | 176° |
| 2026-05-06 21:26 | 5.61683 | -3.85551 | 5144 ft | 272 kts | 176° |
| 2026-05-06 21:26 | 5.59801 | -3.85427 | 4844 ft | 270 kts | 176° |
| 2026-05-06 21:26 | 5.57927 | -3.85302 | 4530 ft | 269 kts | 176° |
| 2026-05-06 21:27 | 5.56059 | -3.85187 | 4216 ft | 268 kts | 177° |
| 2026-05-06 21:27 | 5.54204 | -3.85084 | 3922 ft | 266 kts | 178° |
| 2026-05-06 21:27 | 5.52363 | -3.84990 | 3630 ft | 264 kts | 178° |
| 2026-05-06 21:27 | 5.50534 | -3.84902 | 3328 ft | 261 kts | 179° |
| 2026-05-06 21:28 | 5.48766 | -3.84819 | 3239 ft | 247 kts | 179° |
| 2026-05-06 21:28 | 5.47119 | -3.84741 | 3169 ft | 234 kts | 179° |
| 2026-05-06 21:28 | 5.45542 | -3.84796 | 3076 ft | 220 kts | 189° |
| 2026-05-06 21:28 | 5.44104 | -3.85165 | 2970 ft | 208 kts | 202° |
| 2026-05-06 21:29 | 5.42792 | -3.85693 | 2872 ft | 197 kts | 203° |
| 2026-05-06 21:29 | 5.41552 | -3.86204 | 2789 ft | 189 kts | 204° |
| 2026-05-06 21:29 | 5.40346 | -3.86705 | 2687 ft | 186 kts | 204° |
| 2026-05-06 21:29 | 5.39172 | -3.87184 | 2486 ft | 179 kts | 204° |
| 2026-05-06 21:30 | 5.38038 | -3.87651 | 2246 ft | 176 kts | 204° |
| 2026-05-06 21:30 | 5.36909 | -3.88122 | 2025 ft | 175 kts | 204° |
| 2026-05-06 21:30 | 5.35798 | -3.88581 | 1785 ft | 169 kts | 204° |
| 2026-05-06 21:30 | 5.34746 | -3.89018 | 1572 ft | 159 kts | 204° |
| 2026-05-06 21:31 | 5.33756 | -3.89429 | 1366 ft | 150 kts | 204° |
| 2026-05-06 21:31 | 5.32808 | -3.89820 | 1156 ft | 144 kts | 204° |
| 2026-05-06 21:31 | 5.31905 | -3.90202 | 971 ft | 137 kts | 204° |
| 2026-05-06 21:31 | 5.31052 | -3.90589 | 824 ft | 134 kts | 204° |
| 2026-05-06 21:32 | 5.30185 | -3.90945 | 643 ft | 135 kts | 203° |
| 2026-05-06 21:32 | 5.28429 | -3.91658 | 277 ft | 137 kts | 202° |
| 2026-05-06 21:32 | 5.27540 | -3.92013 | 105 ft | 137 kts | 201° |
| 2026-05-06 21:33 | 5.26671 | -3.92368 | 29 ft | 125 kts | 200° |
| 2026-05-06 21:33 | 5.25974 | -3.92648 | 32 ft | 94 kts | 202° |
| 2026-05-06 21:33 | 5.25466 | -3.92858 | 33 ft | 64 kts | 202° |
| 2026-05-06 21:33 | 5.25152 | -3.92989 | 34 ft | 36 kts | 202° |
| 2026-05-06 21:34 | 5.24952 | -3.93073 | 35 ft | 21 kts | 204° |
| 2026-05-06 21:34 | 5.24907 | -3.93135 | 36 ft | 9 kts | 265° |
| 2026-05-06 21:34 | 5.24924 | -3.93199 | 37 ft | 11 kts | 290° |
| 2026-05-06 21:34 | 5.24966 | -3.93260 | 36 ft | 10 kts | 332° |
| 2026-05-06 21:35 | 5.25040 | -3.93251 | 35 ft | 12 kts | 20° |
| 2026-05-06 21:35 | 5.25129 | -3.93214 | 35 ft | 15 kts | 22° |
| 2026-05-06 21:35 | 5.25223 | -3.93176 | 35 ft | 12 kts | 22° |
| 2026-05-06 21:35 | 5.25294 | -3.93169 | 35 ft | 8 kts | 342° |
| 2026-05-06 21:36 | 5.25332 | -3.93188 | 35 ft | 4 kts | 329° |
| 2026-05-06 21:36 | 5.25348 | -3.93198 | 35 ft | 0 kts | 329° |